Time;durP1;ratioP1;P1;durP2;ratioP2;P2;SDS_P1;SDS_P2;PMS_P1;PMS_P2;Temp;Humidity;BMP_temperature;BMP_pressure;BME280_temperature;BME280_humidity;BME280_pressure;Samples;Min_cycle;Max_cycle;Signal;HPM_P1;HPM_P2
2023/08/31 00:00:05;;;;;;;;;3.67;3.67;;;;;;;;4767230;29;45380;-95
2023/08/31 00:02:31;;;;;;;;;3.67;3.67;;;;;;;;4769660;29;45369;-95
2023/08/31 00:04:56;;;;;;;;;3.00;3.00;;;;;;;;4764505;29;45440;-93
2023/08/31 00:07:21;;;;;;;;;2.00;2.00;;;;;;;;4774284;29;45168;-95
2023/08/31 00:09:47;;;;;;;;;2.00;2.00;;;;;;;;4759998;29;45505;-94
2023/08/31 00:12:12;;;;;;;;;3.00;3.00;;;;;;;;4760835;29;45511;-94
2023/08/31 00:14:38;;;;;;;;;4.00;4.00;;;;;;;;4776439;29;45361;-94
2023/08/31 00:17:03;;;;;;;;;2.33;2.33;;;;;;;;4779431;29;45346;-95
2023/08/31 00:19:29;;;;;;;;;3.00;3.00;;;;;;;;4777601;29;45824;-94
2023/08/31 00:21:54;;;;;;;;;4.00;4.00;;;;;;;;4768971;29;45309;-94
2023/08/31 00:24:21;;;;;;;;;2.00;2.00;;;;;;;;4764182;29;45602;-93
2023/08/31 00:26:47;;;;;;;;;2.67;2.67;;;;;;;;4776646;29;45392;-94
2023/08/31 00:29:16;;;;;;;;;2.67;2.67;;;;;;;;4776177;29;45235;-94
2023/08/31 00:31:44;;;;;;;;;2.00;2.00;;;;;;;;4768261;29;45529;-93
2023/08/31 00:34:11;;;;;;;;;5.00;5.00;;;;;;;;4757999;29;46502;-94
2023/08/31 00:36:38;;;;;;;;;5.00;5.00;;;;;;;;4765772;29;45164;-94
2023/08/31 00:39:06;;;;;;;;;4.00;4.00;;;;;;;;4759116;29;45317;-94
2023/08/31 00:41:32;;;;;;;;;5.00;5.00;;;;;;;;4765489;29;45605;-94
2023/08/31 00:43:58;;;;;;;;;4.00;4.00;;;;;;;;4760850;29;46253;-95
2023/08/31 00:46:23;;;;;;;;;4.00;4.00;;;;;;;;4758431;29;45426;-94
2023/08/31 00:48:49;;;;;;;;;3.67;3.67;;;;;;;;4741658;29;45437;-94
2023/08/31 00:51:14;;;;;;;;;3.67;3.00;;;;;;;;4765413;29;45482;-94
2023/08/31 00:53:39;;;;;;;;;4.00;4.00;;;;;;;;4758127;29;45354;-94
2023/08/31 00:56:05;;;;;;;;;4.00;4.00;;;;;;;;4758182;29;45356;-94
2023/08/31 00:58:30;;;;;;;;;2.67;2.67;;;;;;;;4780253;29;45548;-93
2023/08/31 01:01:15;;;;;;;;;3.00;3.00;;;;;;;;4759790;29;45217;-94
2023/08/31 01:03:56;;;;;;;;;3.00;3.00;;;;;;;;4753076;29;47297;-94
2023/08/31 01:06:41;;;;;;;;;2.67;2.67;;;;;;;;4774853;29;45357;-94
2023/08/31 01:09:10;;;;;;;;;4.00;4.00;;;;;;;;4757551;29;45606;-94
2023/08/31 01:11:35;;;;;;;;;3.67;3.67;;;;;;;;4774934;29;45481;-94
2023/08/31 01:14:05;;;;;;;;;2.00;2.00;;;;;;;;4775550;29;45171;-93
2023/08/31 01:16:32;;;;;;;;;3.00;3.00;;;;;;;;4775709;29;45535;-93
2023/08/31 01:18:58;;;;;;;;;3.33;3.33;;;;;;;;4746512;29;45534;-93
2023/08/31 01:21:27;;;;;;;;;4.00;4.00;;;;;;;;4754052;29;45567;-93
2023/08/31 01:23:53;;;;;;;;;3.00;3.00;;;;;;;;4764915;29;45412;-93
2023/08/31 01:26:18;;;;;;;;;3.00;3.00;;;;;;;;4752866;29;45225;-93
2023/08/31 01:28:44;;;;;;;;;2.00;2.00;;;;;;;;4757399;29;45350;-93
2023/08/31 01:31:09;;;;;;;;;3.33;3.33;;;;;;;;4741970;29;45388;-94
2023/08/31 01:33:37;;;;;;;;;2.67;2.67;;;;;;;;4758010;29;46101;-92
2023/08/31 01:36:05;;;;;;;;;2.00;2.00;;;;;;;;4767914;29;45258;-96
2023/08/31 01:38:32;;;;;;;;;3.00;3.00;;;;;;;;4757762;29;45235;-94
2023/08/31 01:41:06;;;;;;;;;3.67;3.67;;;;;;;;4767828;29;45402;-94
2023/08/31 01:43:33;;;;;;;;;4.33;4.33;;;;;;;;4741275;29;48171;-96
2023/08/31 01:45:58;;;;;;;;;3.00;3.00;;;;;;;;4757447;29;45171;-94
2023/08/31 01:48:24;;;;;;;;;3.50;3.50;;;;;;;;4761912;29;45196;-93
2023/08/31 01:50:49;;;;;;;;;2.33;2.33;;;;;;;;4757138;29;45704;-96
2023/08/31 01:53:14;;;;;;;;;4.00;4.00;;;;;;;;4758895;29;47353;-95
2023/08/31 01:55:39;;;;;;;;;4.00;4.00;;;;;;;;4773345;29;45443;-96
2023/08/31 01:58:05;;;;;;;;;4.00;4.00;;;;;;;;4766462;29;45432;-96
2023/08/31 02:00:34;;;;;;;;;4.00;4.00;;;;;;;;4769574;29;45696;-94
2023/08/31 02:02:59;;;;;;;;;5.00;3.67;;;;;;;;4752682;29;47038;-94
2023/08/31 02:05:25;;;;;;;;;4.00;4.00;;;;;;;;4762026;29;45491;-95
2023/08/31 02:07:50;;;;;;;;;4.67;4.67;;;;;;;;4748378;29;45355;-95
2023/08/31 02:10:15;;;;;;;;;2.33;2.33;;;;;;;;4770190;29;45393;-94
2023/08/31 02:12:40;;;;;;;;;3.00;3.00;;;;;;;;4761949;29;45440;-96
2023/08/31 02:15:06;;;;;;;;;4.67;4.67;;;;;;;;4763484;29;45263;-95
2023/08/31 02:17:31;;;;;;;;;2.33;2.33;;;;;;;;4772880;29;45824;-96
2023/08/31 02:19:57;;;;;;;;;2.00;2.00;;;;;;;;4771335;29;45238;-96
2023/08/31 02:22:23;;;;;;;;;4.00;4.00;;;;;;;;4766320;29;46327;-94
2023/08/31 02:24:48;;;;;;;;;3.00;3.00;;;;;;;;4763544;29;45175;-93
2023/08/31 02:27:13;;;;;;;;;4.33;4.33;;;;;;;;4761580;29;45258;-93
2023/08/31 02:29:38;;;;;;;;;3.00;3.00;;;;;;;;4756649;29;45287;-93
2023/08/31 02:32:04;;;;;;;;;4.00;4.00;;;;;;;;4760038;29;46140;-94
2023/08/31 02:34:29;;;;;;;;;3.00;3.00;;;;;;;;4755467;29;46305;-94
2023/08/31 02:36:55;;;;;;;;;4.00;4.00;;;;;;;;4760561;29;45428;-93
2023/08/31 02:39:20;;;;;;;;;3.67;3.67;;;;;;;;4742470;29;45501;-93
2023/08/31 02:41:45;;;;;;;;;4.00;4.00;;;;;;;;4758999;29;48326;-93
2023/08/31 02:44:11;;;;;;;;;3.00;3.00;;;;;;;;4771896;29;45983;-93
2023/08/31 02:46:36;;;;;;;;;3.33;3.33;;;;;;;;4752200;29;45424;-94
2023/08/31 02:49:01;;;;;;;;;3.00;3.00;;;;;;;;4768457;29;45516;-94
2023/08/31 02:51:27;;;;;;;;;4.00;4.00;;;;;;;;4765903;29;46157;-94
2023/08/31 02:53:53;;;;;;;;;3.00;3.00;;;;;;;;4767146;29;45636;-94
2023/08/31 02:56:18;;;;;;;;;2.67;2.67;;;;;;;;4769746;29;45606;-94
2023/08/31 02:58:43;;;;;;;;;3.00;3.00;;;;;;;;4768192;29;45515;-94
2023/08/31 03:01:11;;;;;;;;;4.00;4.00;;;;;;;;4750761;29;47757;-93
2023/08/31 03:03:36;;;;;;;;;4.33;4.33;;;;;;;;4766791;29;45577;-93
2023/08/31 03:06:02;;;;;;;;;4.00;4.00;;;;;;;;4753354;29;45473;-93
2023/08/31 03:08:27;;;;;;;;;3.00;3.00;;;;;;;;4765981;29;46915;-93
2023/08/31 03:10:53;;;;;;;;;5.00;5.00;;;;;;;;4773796;29;45390;-93
2023/08/31 03:13:18;;;;;;;;;5.00;3.67;;;;;;;;4770173;29;45605;-93
2023/08/31 03:15:43;;;;;;;;;4.00;3.67;;;;;;;;4755385;29;45355;-92
2023/08/31 03:18:08;;;;;;;;;4.00;4.00;;;;;;;;4768973;29;47064;-96
2023/08/31 03:20:37;;;;;;;;;4.00;4.00;;;;;;;;4750440;29;47179;-96
2023/08/31 03:23:02;;;;;;;;;5.33;5.33;;;;;;;;4753729;29;45405;-96
2023/08/31 03:25:28;;;;;;;;;2.33;2.33;;;;;;;;4749242;29;45457;-95
2023/08/31 03:27:53;;;;;;;;;5.00;5.00;;;;;;;;4769847;29;45457;-95
2023/08/31 03:30:18;;;;;;;;;6.00;6.00;;;;;;;;4753739;29;46974;-95
2023/08/31 03:32:43;;;;;;;;;3.00;3.00;;;;;;;;4762398;29;45479;-95
2023/08/31 03:35:09;;;;;;;;;4.00;4.00;;;;;;;;4772629;29;45508;-94
2023/08/31 03:37:35;;;;;;;;;3.00;3.00;;;;;;;;4768810;29;45349;-95
2023/08/31 03:40:00;;;;;;;;;3.67;3.67;;;;;;;;4757172;29;46063;-96
2023/08/31 03:42:25;;;;;;;;;4.00;4.00;;;;;;;;4750550;29;45546;-96
2023/08/31 03:44:50;;;;;;;;;5.00;5.00;;;;;;;;4753790;29;45363;-95
2023/08/31 03:47:16;;;;;;;;;2.00;2.00;;;;;;;;4751161;29;46012;-94
2023/08/31 03:49:41;;;;;;;;;6.00;4.67;;;;;;;;4749570;29;45301;-93
2023/08/31 03:52:06;;;;;;;;;7.33;5.33;;;;;;;;4750715;29;45298;-94
2023/08/31 03:54:31;;;;;;;;;4.00;4.00;;;;;;;;4735894;29;45190;-94
2023/08/31 03:56:56;;;;;;;;;4.00;4.00;;;;;;;;4753064;29;45240;-92
2023/08/31 03:59:22;;;;;;;;;4.00;4.00;;;;;;;;4750296;29;45535;-93
2023/08/31 04:01:47;;;;;;;;;4.00;3.00;;;;;;;;4748111;29;45406;-93
2023/08/31 04:04:13;;;;;;;;;4.33;4.33;;;;;;;;4749215;29;45604;-94
2023/08/31 04:06:38;;;;;;;;;4.33;4.33;;;;;;;;4748343;29;45515;-93
2023/08/31 04:09:04;;;;;;;;;4.67;4.67;;;;;;;;4746884;29;45829;-93
2023/08/31 04:11:29;;;;;;;;;3.33;3.33;;;;;;;;4747180;29;45572;-94
2023/08/31 04:13:54;;;;;;;;;3.00;3.00;;;;;;;;4733679;29;45630;-94
2023/08/31 04:16:20;;;;;;;;;4.00;4.00;;;;;;;;4734346;30;45583;-93
2023/08/31 04:18:51;;;;;;;;;4.00;2.67;;;;;;;;4727690;29;46151;-94
2023/08/31 04:21:16;;;;;;;;;4.00;4.00;;;;;;;;4733631;29;45991;-93
2023/08/31 04:23:41;;;;;;;;;4.00;4.00;;;;;;;;4738459;29;45252;-93
2023/08/31 04:26:11;;;;;;;;;4.00;4.00;;;;;;;;4758353;29;45231;-93
2023/08/31 04:28:37;;;;;;;;;5.00;3.67;;;;;;;;4758377;29;46029;-94
2023/08/31 04:31:04;;;;;;;;;5.00;5.00;;;;;;;;4733482;29;45594;-93
2023/08/31 04:33:29;;;;;;;;;3.00;3.00;;;;;;;;4742044;29;45359;-93
2023/08/31 04:35:54;;;;;;;;;4.67;4.67;;;;;;;;4733982;30;45339;-94
2023/08/31 04:38:19;;;;;;;;;5.67;5.67;;;;;;;;4740430;30;45531;-93
2023/08/31 04:40:45;;;;;;;;;4.00;4.00;;;;;;;;4768435;29;45428;-94
2023/08/31 04:43:10;;;;;;;;;4.00;4.00;;;;;;;;4763980;29;45274;-93
2023/08/31 04:45:35;;;;;;;;;4.00;4.00;;;;;;;;4768819;29;45511;-93
2023/08/31 04:48:01;;;;;;;;;4.00;4.00;;;;;;;;4750435;29;47119;-93
2023/08/31 04:50:26;;;;;;;;;3.67;3.67;;;;;;;;4749474;29;45576;-93
2023/08/31 04:52:51;;;;;;;;;4.33;4.33;;;;;;;;4749621;29;45467;-92
2023/08/31 04:55:16;;;;;;;;;4.00;4.00;;;;;;;;4766838;29;45430;-93
2023/08/31 04:57:41;;;;;;;;;5.00;5.00;;;;;;;;4772927;29;45672;-93
2023/08/31 05:00:09;;;;;;;;;4.00;4.00;;;;;;;;4766230;29;45377;-92
2023/08/31 05:02:34;;;;;;;;;5.00;5.00;;;;;;;;4764863;29;45521;-93
2023/08/31 05:04:59;;;;;;;;;4.67;4.67;;;;;;;;4754349;29;45398;-93
2023/08/31 05:07:24;;;;;;;;;3.67;3.67;;;;;;;;4765284;29;45523;-94
2023/08/31 05:09:50;;;;;;;;;6.33;6.33;;;;;;;;4764614;29;45589;-93
2023/08/31 05:12:17;;;;;;;;;6.00;6.00;;;;;;;;4766832;29;46519;-94
2023/08/31 05:14:42;;;;;;;;;4.67;4.67;;;;;;;;4747777;29;45609;-93
2023/08/31 05:17:07;;;;;;;;;5.00;5.00;;;;;;;;4773717;29;45440;-94
2023/08/31 05:19:33;;;;;;;;;5.00;5.00;;;;;;;;4762327;29;45425;-94
2023/08/31 05:21:58;;;;;;;;;5.00;5.00;;;;;;;;4759242;29;45467;-94
2023/08/31 05:24:24;;;;;;;;;4.00;4.00;;;;;;;;4767053;29;45591;-93
2023/08/31 05:26:49;;;;;;;;;10.00;6.00;;;;;;;;4750445;29;48087;-94
2023/08/31 05:29:14;;;;;;;;;5.00;5.00;;;;;;;;4761631;29;47239;-94
2023/08/31 05:31:39;;;;;;;;;7.00;7.00;;;;;;;;4762290;29;45889;-93
2023/08/31 05:34:05;;;;;;;;;4.00;4.00;;;;;;;;4765319;29;45692;-94
2023/08/31 05:36:30;;;;;;;;;4.00;4.00;;;;;;;;4765042;29;45415;-94
2023/08/31 05:38:55;;;;;;;;;5.00;5.00;;;;;;;;4746294;29;45463;-94
2023/08/31 05:41:21;;;;;;;;;4.33;4.33;;;;;;;;4746438;29;47135;-93
2023/08/31 05:43:46;;;;;;;;;4.00;4.00;;;;;;;;4752225;29;45468;-93
2023/08/31 05:46:11;;;;;;;;;3.33;3.00;;;;;;;;4730338;30;48078;-93
2023/08/31 05:48:37;;;;;;;;;5.67;5.67;;;;;;;;4739877;30;45371;-94
2023/08/31 05:51:03;;;;;;;;;4.00;4.00;;;;;;;;4731513;30;45339;-94
2023/08/31 05:53:29;;;;;;;;;3.67;3.67;;;;;;;;4739947;30;45373;-94
2023/08/31 05:55:54;;;;;;;;;5.00;5.00;;;;;;;;4722507;30;47778;-94
2023/08/31 05:58:19;;;;;;;;;4.33;4.33;;;;;;;;4752497;29;45430;-94
2023/08/31 06:00:45;;;;;;;;;6.00;4.67;;;;;;;;4760454;29;45310;-94
2023/08/31 06:03:10;;;;;;;;;7.00;5.00;;;;;;;;4755549;29;45477;-94
2023/08/31 06:05:36;;;;;;;;;4.67;4.67;;;;;;;;4726015;30;47918;-94
2023/08/31 06:08:01;;;;;;;;;4.00;4.00;;;;;;;;4755170;29;45423;-94
2023/08/31 06:10:26;;;;;;;;;3.67;3.67;;;;;;;;4753037;29;45520;-94
2023/08/31 06:12:54;;;;;;;;;4.00;4.00;;;;;;;;4737562;29;46778;-96
2023/08/31 06:15:19;;;;;;;;;3.00;3.00;;;;;;;;4732552;29;47762;-94
2023/08/31 06:17:44;;;;;;;;;4.33;4.33;;;;;;;;4729828;29;45750;-95
2023/08/31 06:20:10;;;;;;;;;5.33;4.00;;;;;;;;4743913;29;45476;-94
2023/08/31 06:22:35;;;;;;;;;4.67;4.67;;;;;;;;4747873;29;45666;-93
2023/08/31 06:25:00;;;;;;;;;3.33;3.33;;;;;;;;4733031;29;46744;-93
2023/08/31 06:27:26;;;;;;;;;4.33;4.33;;;;;;;;4733615;29;45506;-93
2023/08/31 06:29:51;;;;;;;;;4.67;4.67;;;;;;;;4746627;29;45519;-93
2023/08/31 06:32:17;;;;;;;;;5.00;5.00;;;;;;;;4745293;29;45664;-94
2023/08/31 06:34:42;;;;;;;;;8.00;6.00;;;;;;;;4731484;29;47330;-94
2023/08/31 06:37:07;;;;;;;;;3.33;3.33;;;;;;;;4746599;29;45348;-94
2023/08/31 06:39:33;;;;;;;;;5.00;5.00;;;;;;;;4753720;29;45449;-95
2023/08/31 06:41:58;;;;;;;;;7.00;7.00;;;;;;;;4765555;29;45302;-93
2023/08/31 06:44:23;;;;;;;;;5.00;5.00;;;;;;;;4753765;29;47010;-93
2023/08/31 06:46:49;;;;;;;;;11.00;10.00;;;;;;;;4751366;29;45413;-92
2023/08/31 06:49:14;;;;;;;;;8.33;6.33;;;;;;;;4769750;29;45501;-92
2023/08/31 06:52:10;;;;;;;;;7.00;7.00;;;;;;;;4752201;29;45511;-96
2023/08/31 06:54:36;;;;;;;;;6.00;6.00;;;;;;;;4741645;29;45877;-92
2023/08/31 06:57:01;;;;;;;;;4.33;4.33;;;;;;;;4763210;29;47076;-91
2023/08/31 06:59:26;;;;;;;;;5.33;5.33;;;;;;;;4749754;29;47232;-94
2023/08/31 07:01:51;;;;;;;;;10.00;10.00;;;;;;;;4763128;29;46081;-92
2023/08/31 07:04:17;;;;;;;;;4.67;4.67;;;;;;;;4752967;29;47249;-93
2023/08/31 07:06:42;;;;;;;;;3.33;3.33;;;;;;;;4753328;29;46174;-94
2023/08/31 07:09:08;;;;;;;;;4.00;4.00;;;;;;;;4767973;29;45915;-96
2023/08/31 07:11:33;;;;;;;;;3.67;3.67;;;;;;;;4759287;29;45474;-91
2023/08/31 07:13:59;;;;;;;;;3.00;3.00;;;;;;;;4769307;29;45504;-93
2023/08/31 07:16:24;;;;;;;;;7.33;7.33;;;;;;;;4751221;29;45450;-94
2023/08/31 07:18:49;;;;;;;;;9.00;9.00;;;;;;;;4749196;29;45551;-92
2023/08/31 07:21:22;;;;;;;;;7.00;7.00;;;;;;;;4767731;29;45659;-94
2023/08/31 07:23:48;;;;;;;;;7.00;7.00;;;;;;;;4768383;29;45741;-93
2023/08/31 07:26:16;;;;;;;;;3.67;3.67;;;;;;;;4770788;29;45546;-95
2023/08/31 07:28:42;;;;;;;;;7.67;7.67;;;;;;;;4754461;29;45381;-91
2023/08/31 07:31:07;;;;;;;;;3.00;3.00;;;;;;;;4770315;29;45212;-89
2023/08/31 07:33:34;;;;;;;;;6.67;6.67;;;;;;;;4770317;29;45622;-91
2023/08/31 07:36:03;;;;;;;;;6.00;6.00;;;;;;;;4765103;29;45365;-91
2023/08/31 07:38:29;;;;;;;;;5.33;5.33;;;;;;;;4776387;29;45340;-96
2023/08/31 07:41:01;;;;;;;;;2.33;2.33;;;;;;;;4746224;29;45476;-93
2023/08/31 07:43:26;;;;;;;;;4.00;4.00;;;;;;;;4766973;29;45436;-93
2023/08/31 07:45:53;;;;;;;;;2.67;2.67;;;;;;;;4754247;29;45536;-95
2023/08/31 07:48:18;;;;;;;;;4.00;4.00;;;;;;;;4748515;29;45554;-95
2023/08/31 07:50:43;;;;;;;;;3.00;3.00;;;;;;;;4750637;29;45502;-96
2023/08/31 07:53:12;;;;;;;;;4.00;4.00;;;;;;;;4748026;29;47532;-95
2023/08/31 07:55:40;;;;;;;;;2.67;2.67;;;;;;;;4747635;29;45433;-96
2023/08/31 07:58:13;;;;;;;;;3.67;3.67;;;;;;;;4748068;29;46455;-96
2023/08/31 08:00:39;;;;;;;;;3.00;3.00;;;;;;;;4747941;29;46962;-96
2023/08/31 08:03:21;;;;;;;;;4.33;3.67;;;;;;;;4772332;29;45430;-97
2023/08/31 08:05:49;;;;;;;;;3.33;3.33;;;;;;;;4769449;29;45303;-96
2023/08/31 08:08:15;;;;;;;;;3.00;3.00;;;;;;;;4747804;29;45748;-95
2023/08/31 08:10:49;;;;;;;;;3.00;3.00;;;;;;;;4767466;29;45735;-95
2023/08/31 08:13:15;;;;;;;;;2.67;2.00;;;;;;;;4750207;29;47171;-96
2023/08/31 08:15:40;;;;;;;;;3.00;3.00;;;;;;;;4745810;29;45433;-95
2023/08/31 08:18:06;;;;;;;;;2.00;2.00;;;;;;;;4764927;29;46032;-96
2023/08/31 08:20:31;;;;;;;;;2.00;2.00;;;;;;;;4751218;29;45639;-93
2023/08/31 08:22:59;;;;;;;;;1.00;1.00;;;;;;;;4763117;29;45598;-96
2023/08/31 08:25:25;;;;;;;;;2.67;2.67;;;;;;;;4751089;29;45429;-95
2023/08/31 08:27:50;;;;;;;;;2.00;2.00;;;;;;;;4767219;29;45485;-96
2023/08/31 08:30:15;;;;;;;;;2.00;2.00;;;;;;;;4748108;29;45593;-95
2023/08/31 08:32:41;;;;;;;;;1.33;1.33;;;;;;;;4753346;29;47955;-95
2023/08/31 08:35:09;;;;;;;;;1.67;1.67;;;;;;;;4766272;29;45519;-96
2023/08/31 08:37:34;;;;;;;;;1.00;1.00;;;;;;;;4768209;29;44939;-96
2023/08/31 08:40:04;;;;;;;;;1.67;1.67;;;;;;;;4761784;29;45598;-96
2023/08/31 08:42:30;;;;;;;;;1.00;1.00;;;;;;;;4744416;29;47132;-95
2023/08/31 08:44:56;;;;;;;;;1.33;1.33;;;;;;;;4746170;29;45538;-96
2023/08/31 08:47:21;;;;;;;;;2.00;2.00;;;;;;;;4754962;29;45455;-96
2023/08/31 08:49:47;;;;;;;;;1.00;1.00;;;;;;;;4775132;29;45292;-96
2023/08/31 08:52:13;;;;;;;;;2.33;2.33;;;;;;;;4753837;29;47051;-96
2023/08/31 08:54:39;;;;;;;;;0.33;0.33;;;;;;;;4770370;29;45517;-95
2023/08/31 08:57:04;;;;;;;;;1.00;1.00;;;;;;;;4776480;29;45545;-96
2023/08/31 08:59:32;;;;;;;;;3.00;3.00;;;;;;;;4757640;29;45639;-96
2023/08/31 09:01:57;;;;;;;;;3.33;2.33;;;;;;;;4745269;29;47940;-96
2023/08/31 09:04:23;;;;;;;;;1.00;1.00;;;;;;;;4757254;29;45319;-95
2023/08/31 09:06:50;;;;;;;;;2.00;1.67;;;;;;;;4759646;29;45385;-96
2023/08/31 09:09:16;;;;;;;;;2.00;2.00;;;;;;;;4771230;29;45541;-96
2023/08/31 09:11:42;;;;;;;;;1.67;1.67;;;;;;;;4772916;29;45230;-95
2023/08/31 09:14:14;;;;;;;;;1.67;1.67;;;;;;;;4758109;29;45321;-95
2023/08/31 09:16:43;;;;;;;;;2.33;2.00;;;;;;;;4769280;29;45492;-96
2023/08/31 09:19:17;;;;;;;;;2.00;2.00;;;;;;;;4767504;29;45505;-95
2023/08/31 09:21:42;;;;;;;;;2.00;2.00;;;;;;;;4770194;29;45416;-95
2023/08/31 09:24:08;;;;;;;;;2.00;2.00;;;;;;;;4761532;29;45281;-95
2023/08/31 09:26:59;;;;;;;;;1.00;1.00;;;;;;;;4768763;29;45386;-95
2023/08/31 09:29:25;;;;;;;;;1.00;1.00;;;;;;;;4772292;29;45568;-95
2023/08/31 09:31:50;;;;;;;;;1.00;1.00;;;;;;;;4775609;29;45426;-95
2023/08/31 09:34:16;;;;;;;;;1.00;1.00;;;;;;;;4775396;29;45317;-94
2023/08/31 09:36:41;;;;;;;;;1.00;1.00;;;;;;;;4775028;29;45214;-96
2023/08/31 09:39:08;;;;;;;;;1.00;1.00;;;;;;;;4752284;29;45598;-95
2023/08/31 09:41:36;;;;;;;;;1.00;1.00;;;;;;;;4747136;29;47947;-95
2023/08/31 09:44:17;;;;;;;;;1.00;1.00;;;;;;;;4771974;29;45370;-95
2023/08/31 09:46:43;;;;;;;;;0.67;0.67;;;;;;;;4771240;29;45287;-95
2023/08/31 09:49:09;;;;;;;;;1.00;1.00;;;;;;;;4752400;29;45316;-94
2023/08/31 09:51:35;;;;;;;;;2.00;2.00;;;;;;;;4771940;29;45469;-94
2023/08/31 09:54:05;;;;;;;;;0.00;0.00;;;;;;;;4757456;29;45235;-95
2023/08/31 09:56:32;;;;;;;;;1.33;1.33;;;;;;;;4766665;29;45466;-95
2023/08/31 09:58:58;;;;;;;;;2.00;2.00;;;;;;;;4769457;29;45302;-95
2023/08/31 10:01:25;;;;;;;;;0.67;0.67;;;;;;;;4769686;29;45979;-95
2023/08/31 10:03:51;;;;;;;;;1.00;1.00;;;;;;;;4746768;29;45272;-95
2023/08/31 10:06:17;;;;;;;;;2.67;1.33;;;;;;;;4745011;29;45495;-95
2023/08/31 10:08:43;;;;;;;;;1.00;1.00;;;;;;;;4748800;29;45538;-95
2023/08/31 10:11:12;;;;;;;;;1.33;1.33;;;;;;;;4769950;29;45358;-94
2023/08/31 10:13:40;;;;;;;;;0.67;0.67;;;;;;;;4759776;29;45314;-95
2023/08/31 10:16:05;;;;;;;;;1.67;1.67;;;;;;;;4754299;29;45266;-95
2023/08/31 10:18:35;;;;;;;;;1.67;1.00;;;;;;;;4779487;29;45325;-95
2023/08/31 10:21:02;;;;;;;;;1.33;1.33;;;;;;;;4753236;29;47165;-95
2023/08/31 10:23:27;;;;;;;;;1.00;1.00;;;;;;;;4752337;29;45321;-95
2023/08/31 10:25:53;;;;;;;;;1.00;1.00;;;;;;;;4767379;29;45810;-95
2023/08/31 10:28:22;;;;;;;;;1.00;1.00;;;;;;;;4762863;29;45184;-95
2023/08/31 10:31:01;;;;;;;;;2.00;2.00;;;;;;;;4764779;29;45408;-95
2023/08/31 10:33:27;;;;;;;;;2.33;1.00;;;;;;;;4766457;29;45298;-95
2023/08/31 10:35:54;;;;;;;;;1.00;1.00;;;;;;;;4754577;29;45329;-95
2023/08/31 10:38:19;;;;;;;;;2.00;2.00;;;;;;;;4766915;29;45505;-95
2023/08/31 10:41:05;;;;;;;;;1.00;1.00;;;;;;;;4776793;29;46425;-95
2023/08/31 10:43:49;;;;;;;;;2.00;2.00;;;;;;;;4723878;29;45566;-95
2023/08/31 10:46:19;;;;;;;;;1.00;1.00;;;;;;;;4759906;29;45716;-96
2023/08/31 10:48:53;;;;;;;;;2.00;2.00;;;;;;;;4761092;29;45412;-95
2023/08/31 10:51:21;;;;;;;;;2.00;2.00;;;;;;;;4754222;29;46534;-94
2023/08/31 10:53:46;;;;;;;;;1.00;1.00;;;;;;;;4756951;29;45336;-95
2023/08/31 10:56:12;;;;;;;;;1.00;1.00;;;;;;;;4771908;29;45290;-95
2023/08/31 10:58:37;;;;;;;;;1.00;1.00;;;;;;;;4773920;29;45314;-95
2023/08/31 11:01:03;;;;;;;;;0.33;0.33;;;;;;;;4768242;29;45494;-95
2023/08/31 11:03:30;;;;;;;;;0.00;0.00;;;;;;;;4748315;29;45447;-95
2023/08/31 11:05:55;;;;;;;;;1.00;1.00;;;;;;;;4767463;29;45237;-95
2023/08/31 11:08:23;;;;;;;;;0.33;0.33;;;;;;;;4765464;29;45251;-95
2023/08/31 11:10:49;;;;;;;;;1.33;1.33;;;;;;;;4749602;29;47024;-95
2023/08/31 11:13:22;;;;;;;;;2.00;2.00;;;;;;;;4759805;29;45335;-95
2023/08/31 11:15:48;;;;;;;;;1.00;1.00;;;;;;;;4766007;29;45504;-95
2023/08/31 11:18:17;;;;;;;;;1.00;1.00;;;;;;;;4760727;29;45390;-95
2023/08/31 11:20:43;;;;;;;;;1.33;1.33;;;;;;;;4764133;29;45374;-95
2023/08/31 11:23:08;;;;;;;;;0.00;0.00;;;;;;;;4754112;29;45275;-95
2023/08/31 11:25:36;;;;;;;;;2.33;2.33;;;;;;;;4745770;29;45251;-95
2023/08/31 11:28:05;;;;;;;;;1.00;1.00;;;;;;;;4759451;29;45767;-95
2023/08/31 11:30:33;;;;;;;;;1.00;1.00;;;;;;;;4756866;29;47129;-95
2023/08/31 11:33:05;;;;;;;;;1.00;1.00;;;;;;;;4764700;29;45184;-95
2023/08/31 11:35:35;;;;;;;;;0.67;0.67;;;;;;;;4773433;29;45372;-95
2023/08/31 11:38:00;;;;;;;;;1.00;1.00;;;;;;;;4752093;29;45275;-94
2023/08/31 11:40:26;;;;;;;;;2.00;0.33;;;;;;;;4756338;29;46395;-94
2023/08/31 11:42:52;;;;;;;;;2.00;2.00;;;;;;;;4747212;29;45497;-95
2023/08/31 11:45:18;;;;;;;;;1.67;1.67;;;;;;;;4746999;29;45692;-95
2023/08/31 11:47:44;;;;;;;;;1.00;1.00;;;;;;;;4750216;29;45346;-95
2023/08/31 11:50:10;;;;;;;;;2.67;1.00;;;;;;;;4751557;29;46028;-95
2023/08/31 11:52:36;;;;;;;;;1.00;1.00;;;;;;;;4749689;29;45474;-95
2023/08/31 11:55:02;;;;;;;;;1.00;1.00;;;;;;;;4744139;29;45438;-94
2023/08/31 11:57:30;;;;;;;;;1.00;1.00;;;;;;;;4761638;29;45620;-95
2023/08/31 11:59:58;;;;;;;;;2.00;2.00;;;;;;;;4734858;29;46257;-95
2023/08/31 12:02:23;;;;;;;;;1.67;1.67;;;;;;;;4757798;29;45460;-95
2023/08/31 12:04:49;;;;;;;;;3.00;3.00;;;;;;;;4755218;29;45585;-95
2023/08/31 12:07:18;;;;;;;;;0.67;0.67;;;;;;;;4743136;29;45528;-95
2023/08/31 12:09:44;;;;;;;;;1.67;1.67;;;;;;;;4724774;29;47452;-94
2023/08/31 12:12:09;;;;;;;;;1.67;1.67;;;;;;;;4741837;29;45437;-95
2023/08/31 12:14:36;;;;;;;;;1.00;1.00;;;;;;;;4742833;29;45431;-95
2023/08/31 12:17:03;;;;;;;;;2.00;2.00;;;;;;;;4753432;29;45472;-94
2023/08/31 12:19:29;;;;;;;;;1.67;1.67;;;;;;;;4752843;29;46591;-94
2023/08/31 12:21:54;;;;;;;;;3.00;3.00;;;;;;;;4755707;29;45484;-95
2023/08/31 12:24:22;;;;;;;;;6.00;6.00;;;;;;;;4758614;29;45489;-95
2023/08/31 12:26:47;;;;;;;;;2.00;2.00;;;;;;;;4748281;29;45314;-94
2023/08/31 12:29:12;;;;;;;;;1.00;1.00;;;;;;;;4750790;29;46190;-95
2023/08/31 12:31:38;;;;;;;;;2.00;2.00;;;;;;;;4756765;29;45371;-95
2023/08/31 12:34:04;;;;;;;;;2.00;2.00;;;;;;;;4742472;29;45164;-94
2023/08/31 12:36:29;;;;;;;;;1.00;1.00;;;;;;;;4756937;29;45520;-94
2023/08/31 12:38:55;;;;;;;;;1.00;1.00;;;;;;;;4755309;29;45410;-94
2023/08/31 12:41:20;;;;;;;;;1.00;1.00;;;;;;;;4768842;29;45294;-95
2023/08/31 12:43:45;;;;;;;;;2.00;2.00;;;;;;;;4761585;29;45285;-95
2023/08/31 12:46:13;;;;;;;;;1.00;1.00;;;;;;;;4775669;29;45168;-94
2023/08/31 12:48:38;;;;;;;;;2.00;2.00;;;;;;;;4759701;29;45497;-95
2023/08/31 12:51:03;;;;;;;;;1.00;1.00;;;;;;;;4766243;29;45336;-95
2023/08/31 12:53:29;;;;;;;;;0.00;0.00;;;;;;;;4769838;29;45440;-94
2023/08/31 12:55:54;;;;;;;;;2.33;1.00;;;;;;;;4750296;29;45394;-94
2023/08/31 12:58:21;;;;;;;;;3.33;1.00;;;;;;;;4781279;29;45987;-95
2023/08/31 13:00:48;;;;;;;;;1.67;1.67;;;;;;;;4768310;29;45200;-95
2023/08/31 13:03:14;;;;;;;;;1.00;1.00;;;;;;;;4770924;29;45321;-95
2023/08/31 13:05:40;;;;;;;;;0.67;0.67;;;;;;;;4764692;29;45604;-95
2023/08/31 13:08:05;;;;;;;;;2.00;2.00;;;;;;;;4767478;29;46281;-95
2023/08/31 13:10:31;;;;;;;;;1.33;1.33;;;;;;;;4758662;29;45253;-94
2023/08/31 13:12:56;;;;;;;;;0.67;0.67;;;;;;;;4743722;29;45244;-95
2023/08/31 13:15:21;;;;;;;;;1.00;1.00;;;;;;;;4758416;29;45420;-95
2023/08/31 13:17:46;;;;;;;;;1.33;1.33;;;;;;;;4750408;29;47610;-95
2023/08/31 13:20:11;;;;;;;;;2.00;2.00;;;;;;;;4765487;29;45408;-95
2023/08/31 13:22:37;;;;;;;;;2.67;1.67;;;;;;;;4771732;29;45296;-95
2023/08/31 13:25:04;;;;;;;;;1.00;1.00;;;;;;;;4774920;29;45403;-94
2023/08/31 13:27:29;;;;;;;;;1.00;1.00;;;;;;;;4769439;29;46316;-95
2023/08/31 13:29:55;;;;;;;;;0.67;0.67;;;;;;;;4770283;29;45398;-94
2023/08/31 13:32:20;;;;;;;;;0.33;0.33;;;;;;;;4768037;29;45481;-95
2023/08/31 13:34:45;;;;;;;;;13.33;12.33;;;;;;;;4758091;29;45398;-94
2023/08/31 13:37:10;;;;;;;;;7.00;7.00;;;;;;;;4765450;29;46519;-93
2023/08/31 13:39:36;;;;;;;;;1.00;1.00;;;;;;;;4774841;29;45439;-95
2023/08/31 13:42:03;;;;;;;;;2.00;2.00;;;;;;;;4758271;29;45398;-94
2023/08/31 13:44:28;;;;;;;;;2.00;2.00;;;;;;;;4775931;29;45327;-94
2023/08/31 13:46:54;;;;;;;;;1.00;1.00;;;;;;;;4772961;29;45196;-94
2023/08/31 13:49:19;;;;;;;;;3.33;3.33;;;;;;;;4773500;29;47064;-93
2023/08/31 13:51:45;;;;;;;;;3.67;3.67;;;;;;;;4766907;29;45350;-94
2023/08/31 13:54:10;;;;;;;;;4.00;4.00;;;;;;;;4760784;29;45505;-94
2023/08/31 13:56:36;;;;;;;;;0.67;0.67;;;;;;;;4777046;29;45931;-94
2023/08/31 13:59:01;;;;;;;;;2.00;2.00;;;;;;;;4787570;29;45422;-94
2023/08/31 14:01:27;;;;;;;;;3.00;3.00;;;;;;;;4761963;29;45715;-94
2023/08/31 14:03:52;;;;;;;;;7.00;7.00;;;;;;;;4777344;29;45441;-94
2023/08/31 14:06:17;;;;;;;;;5.33;5.33;;;;;;;;4776217;29;46417;-94
2023/08/31 14:08:42;;;;;;;;;10.00;10.00;;;;;;;;4768960;29;45305;-94
2023/08/31 14:11:08;;;;;;;;;8.00;8.00;;;;;;;;4761473;29;45453;-94
2023/08/31 14:13:33;;;;;;;;;2.67;2.67;;;;;;;;4769071;29;45247;-94
2023/08/31 14:15:59;;;;;;;;;2.33;2.33;;;;;;;;4772441;29;45330;-94
2023/08/31 14:18:28;;;;;;;;;3.00;3.00;;;;;;;;4777132;29;45545;-94
2023/08/31 14:20:53;;;;;;;;;5.00;5.00;;;;;;;;4759923;29;45458;-94
2023/08/31 14:23:18;;;;;;;;;7.00;7.00;;;;;;;;4769724;29;45507;-94
2023/08/31 14:25:44;;;;;;;;;8.67;8.67;;;;;;;;4760270;29;46128;-94
2023/08/31 14:28:09;;;;;;;;;4.33;4.33;;;;;;;;4750882;29;45256;-94
2023/08/31 14:30:37;;;;;;;;;2.00;2.00;;;;;;;;4775454;29;45227;-94
2023/08/31 14:33:02;;;;;;;;;2.67;2.67;;;;;;;;4766785;29;45515;-94
2023/08/31 14:35:28;;;;;;;;;2.67;2.67;;;;;;;;4757093;29;48272;-94
2023/08/31 14:37:53;;;;;;;;;4.67;4.67;;;;;;;;4755657;29;45458;-94